Time;durP1;ratioP1;P1;durP2;ratioP2;P2;SDS_P1;SDS_P2;PMS_P1;PMS_P2;Temp;Humidity;BMP_temperature;BMP_pressure;BME280_temperature;BME280_humidity;BME280_pressure;Samples;Min_cycle;Max_cycle;Signal;HPM_P1;HPM_P2
2021/07/31 00:00:05;;;;;;;10.57;5.55;;;16.60;99.90;;;;;;5046129;28;20021;-73
2021/07/31 00:02:30;;;;;;;8.77;4.50;;;16.60;99.90;;;;;;5046460;28;20025;-72
2021/07/31 00:04:56;;;;;;;8.63;4.65;;;16.50;99.90;;;;;;5044398;28;20037;-74
2021/07/31 00:07:22;;;;;;;8.13;4.28;;;16.60;99.90;;;;;;5046177;28;20032;-74
2021/07/31 00:09:47;;;;;;;6.68;3.67;;;16.40;99.90;;;;;;5046452;28;20029;-71
2021/07/31 00:12:13;;;;;;;7.35;3.78;;;16.40;99.90;;;;;;5046184;28;20056;-71
2021/07/31 00:14:39;;;;;;;6.65;3.80;;;16.50;99.90;;;;;;5044618;28;20075;-71
2021/07/31 00:17:07;;;;;;;9.38;3.60;;;16.50;99.90;;;;;;5046016;28;20884;-71
2021/07/31 00:19:33;;;;;;;5.90;3.35;;;16.50;99.90;;;;;;5045892;28;20025;-72
2021/07/31 00:21:58;;;;;;;5.18;3.25;;;16.50;99.90;;;;;;5044459;28;20029;-75
2021/07/31 00:24:24;;;;;;;4.55;2.50;;;16.40;99.90;;;;;;5045853;28;20037;-74
2021/07/31 00:26:50;;;;;;;4.97;2.75;;;16.40;99.90;;;;;;5046162;28;20037;-72
2021/07/31 00:29:16;;;;;;;3.38;2.03;;;16.40;99.90;;;;;;5044661;28;20026;-74
2021/07/31 00:31:41;;;;;;;11.07;2.17;;;16.40;99.90;;;;;;5045878;28;20033;-74
2021/07/31 00:34:07;;;;;;;8.90;1.42;;;16.20;99.90;;;;;;5045672;28;20033;-71
2021/07/31 00:36:32;;;;;;;2.10;1.05;;;16.20;99.90;;;;;;5044391;28;20022;-72
2021/07/31 00:38:58;;;;;;;5.47;1.88;;;16.30;99.90;;;;;;5044244;28;20056;-70
2021/07/31 00:41:24;;;;;;;2.25;1.55;;;16.20;99.90;;;;;;5045486;28;20081;-68
2021/07/31 00:43:49;;;;;;;3.25;1.33;;;16.20;99.90;;;;;;5045511;28;20022;-74
2021/07/31 00:46:16;;;;;;;7.85;1.45;;;16.20;99.90;;;;;;5045790;28;20055;-70
2021/07/31 00:48:42;;;;;;;4.07;1.58;;;16.10;99.90;;;;;;5045597;28;20029;-69
2021/07/31 00:51:07;;;;;;;4.40;0.90;;;16.10;99.90;;;;;;5045369;28;20094;-71
2021/07/31 00:53:33;;;;;;;6.32;1.40;;;16.00;99.90;;;;;;5045082;28;20021;-74
2021/07/31 00:55:59;;;;;;;2.00;1.13;;;16.00;99.90;;;;;;5045222;28;20053;-73
2021/07/31 00:58:26;;;;;;;2.08;1.20;;;16.00;99.90;;;;;;5045180;28;20057;-71
2021/07/31 01:00:52;;;;;;;1.20;1.10;;;16.00;99.90;;;;;;5045071;28;20044;-75
2021/07/31 01:03:18;;;;;;;3.00;1.38;;;15.90;99.90;;;;;;5045302;28;20533;-75
2021/07/31 01:05:44;;;;;;;2.20;1.45;;;16.00;99.90;;;;;;5045243;28;20501;-74
2021/07/31 01:08:10;;;;;;;2.20;1.23;;;16.00;99.90;;;;;;5045101;28;20056;-72
2021/07/31 01:10:35;;;;;;;2.65;1.40;;;15.90;99.90;;;;;;5044990;28;20037;-74
2021/07/31 01:13:03;;;;;;;2.00;1.23;;;15.90;99.90;;;;;;5045023;28;20060;-76
2021/07/31 01:15:29;;;;;;;2.92;1.20;;;15.90;99.90;;;;;;5043647;28;20049;-76
2021/07/31 01:17:55;;;;;;;2.10;1.42;;;15.80;99.90;;;;;;5043956;28;20035;-73
2021/07/31 01:20:21;;;;;;;7.97;1.65;;;15.90;99.90;;;;;;5044911;28;20061;-74
2021/07/31 01:22:46;;;;;;;2.50;1.27;;;15.80;99.90;;;;;;5044992;28;20358;-73
2021/07/31 01:25:12;;;;;;;1.83;1.23;;;15.90;99.90;;;;;;5044994;28;20033;-72
2021/07/31 01:27:39;;;;;;;6.78;1.65;;;15.80;99.90;;;;;;5044716;28;20026;-74
2021/07/31 01:30:05;;;;;;;2.45;1.55;;;15.90;99.90;;;;;;5043518;28;20052;-73
2021/07/31 01:32:31;;;;;;;3.03;1.60;;;15.80;99.90;;;;;;5044836;28;20087;-71
2021/07/31 01:34:57;;;;;;;2.78;1.73;;;15.90;99.90;;;;;;5044610;28;20470;-72
2021/07/31 01:37:23;;;;;;;3.35;1.25;;;15.80;99.90;;;;;;5043461;28;20026;-72
2021/07/31 01:39:49;;;;;;;2.42;1.30;;;15.90;99.90;;;;;;5044693;28;20021;-73
2021/07/31 01:42:15;;;;;;;2.60;1.33;;;16.00;99.90;;;;;;5044681;28;20394;-72
2021/07/31 01:44:41;;;;;;;2.72;2.03;;;15.90;99.90;;;;;;5044671;28;20064;-72
2021/07/31 01:47:07;;;;;;;4.00;1.77;;;15.90;99.90;;;;;;5044565;28;20029;-70
2021/07/31 01:49:32;;;;;;;4.10;1.83;;;15.90;99.90;;;;;;5043219;28;20025;-73
2021/07/31 01:51:58;;;;;;;6.15;2.72;;;15.90;99.90;;;;;;5044701;28;20079;-71
2021/07/31 01:54:24;;;;;;;5.20;2.17;;;15.90;99.90;;;;;;5043310;28;20022;-70
2021/07/31 01:56:50;;;;;;;2.88;1.73;;;15.90;99.90;;;;;;5044543;28;20022;-74
2021/07/31 01:59:16;;;;;;;12.70;1.90;;;15.80;99.90;;;;;;5044795;28;20032;-72
2021/07/31 02:01:42;;;;;;;7.00;1.85;;;15.80;99.90;;;;;;5044556;28;20064;-73
2021/07/31 02:04:08;;;;;;;2.60;1.90;;;15.80;99.90;;;;;;5044328;28;20038;-71
2021/07/31 02:06:33;;;;;;;2.35;1.33;;;15.80;99.90;;;;;;5044305;28;20022;-70
2021/07/31 02:08:59;;;;;;;3.10;1.67;;;15.80;99.90;;;;;;5044296;28;20033;-71
2021/07/31 02:11:24;;;;;;;2.40;1.45;;;15.80;99.90;;;;;;5044503;28;20018;-72
2021/07/31 02:13:50;;;;;;;2.60;1.80;;;15.80;99.90;;;;;;5044302;28;20036;-73
2021/07/31 02:16:23;;;;;;;4.13;2.10;;;15.80;99.90;;;;;;5044434;28;20052;-74
2021/07/31 02:18:50;;;;;;;2.97;1.73;;;15.90;99.90;;;;;;5044022;28;20084;-72
2021/07/31 02:21:16;;;;;;;2.78;1.77;;;15.90;99.90;;;;;;5044359;28;20022;-74
2021/07/31 02:23:41;;;;;;;5.63;1.90;;;15.90;99.90;;;;;;5044609;28;20037;-73
2021/07/31 02:26:07;;;;;;;2.30;1.65;;;15.90;99.90;;;;;;5044011;28;20074;-73
2021/07/31 02:28:32;;;;;;;2.17;1.70;;;15.90;99.90;;;;;;5046118;28;20059;-71
2021/07/31 02:30:58;;;;;;;4.80;1.75;;;15.90;99.90;;;;;;5047425;28;20021;-72
2021/07/31 02:33:23;;;;;;;7.63;2.33;;;16.00;99.90;;;;;;5047743;28;20049;-73
2021/07/31 02:35:49;;;;;;;4.55;1.85;;;15.90;99.90;;;;;;5048145;28;20040;-71
2021/07/31 02:38:15;;;;;;;6.80;1.95;;;15.90;99.90;;;;;;5048049;28;20029;-71
2021/07/31 02:40:40;;;;;;;7.22;1.83;;;15.90;99.90;;;;;;5047768;28;20033;-69
2021/07/31 02:43:06;;;;;;;5.80;1.50;;;15.90;99.90;;;;;;5047762;28;20033;-70
2021/07/31 02:45:31;;;;;;;2.88;1.67;;;15.90;99.90;;;;;;5046226;28;20041;-70
2021/07/31 02:47:57;;;;;;;8.48;2.78;;;15.90;99.90;;;;;;5047654;28;20079;-74
2021/07/31 02:50:23;;;;;;;4.35;2.10;;;15.80;99.90;;;;;;5047734;28;20029;-73
2021/07/31 02:52:48;;;;;;;2.25;1.35;;;15.80;99.90;;;;;;5047215;28;20381;-70
2021/07/31 02:55:14;;;;;;;6.05;2.35;;;15.80;99.90;;;;;;5047790;28;20029;-69
2021/07/31 02:57:40;;;;;;;2.85;1.70;;;15.80;99.90;;;;;;5047557;28;20032;-70
2021/07/31 03:00:06;;;;;;;3.42;1.70;;;15.80;99.90;;;;;;5047713;28;20030;-70
2021/07/31 03:02:32;;;;;;;7.25;1.55;;;15.80;99.90;;;;;;5046859;28;20022;-69
2021/07/31 03:04:58;;;;;;;3.20;1.63;;;15.80;99.90;;;;;;5047292;28;20038;-72
2021/07/31 03:07:23;;;;;;;3.38;1.58;;;15.80;99.90;;;;;;5047399;28;20052;-70
2021/07/31 03:09:49;;;;;;;3.47;1.92;;;15.80;99.90;;;;;;5047450;28;20022;-69
2021/07/31 03:12:15;;;;;;;2.80;1.35;;;15.80;99.90;;;;;;5047310;28;20084;-70
2021/07/31 03:14:42;;;;;;;2.70;1.85;;;15.80;99.90;;;;;;5045878;28;20073;-69
2021/07/31 03:17:08;;;;;;;8.35;2.70;;;15.80;99.90;;;;;;5047079;28;20018;-72
2021/07/31 03:19:33;;;;;;;3.53;1.48;;;15.80;99.90;;;;;;5047099;28;20062;-70
2021/07/31 03:22:01;;;;;;;12.40;2.58;;;15.80;99.90;;;;;;5046918;28;20034;-74
2021/07/31 03:24:26;;;;;;;3.35;1.45;;;15.80;99.90;;;;;;5046945;28;20042;-71
2021/07/31 03:26:52;;;;;;;6.55;1.48;;;15.90;99.90;;;;;;5046942;28;20093;-72
2021/07/31 03:29:17;;;;;;;6.07;1.38;;;15.70;99.90;;;;;;5046998;28;20386;-69
2021/07/31 03:31:43;;;;;;;2.20;1.17;;;15.80;99.90;;;;;;5047277;28;20033;-70
2021/07/31 03:34:09;;;;;;;8.02;2.03;;;15.80;99.90;;;;;;5046958;28;20367;-74
2021/07/31 03:36:34;;;;;;;2.47;1.40;;;15.80;99.90;;;;;;5046792;28;20021;-71
2021/07/31 03:39:00;;;;;;;5.00;1.60;;;15.70;99.90;;;;;;5044913;28;20104;-73
2021/07/31 03:41:25;;;;;;;2.65;1.55;;;15.70;99.90;;;;;;5046331;28;20089;-70
2021/07/31 03:43:51;;;;;;;4.97;1.30;;;15.70;99.90;;;;;;5046550;28;20056;-73
2021/07/31 03:46:17;;;;;;;6.10;1.20;;;15.80;99.90;;;;;;5046838;28;20022;-73
2021/07/31 03:48:42;;;;;;;1.58;0.95;;;15.70;99.90;;;;;;5046558;28;20045;-72
2021/07/31 03:51:11;;;;;;;6.57;1.20;;;15.70;99.90;;;;;;5045335;28;20032;-73
2021/07/31 03:53:36;;;;;;;1.75;1.13;;;15.70;99.90;;;;;;5045123;28;20044;-71
2021/07/31 03:56:02;;;;;;;5.57;1.83;;;15.70;99.90;;;;;;5046388;28;20049;-72
2021/07/31 03:58:28;;;;;;;3.75;1.92;;;15.70;99.90;;;;;;5046360;28;20033;-71
2021/07/31 04:00:54;;;;;;;4.10;1.67;;;15.70;99.90;;;;;;5046144;28;20055;-73
2021/07/31 04:03:19;;;;;;;9.15;1.90;;;15.70;99.90;;;;;;5046378;28;20096;-72
2021/07/31 04:05:45;;;;;;;2.17;1.35;;;15.60;99.90;;;;;;5046343;28;20486;-74
2021/07/31 04:08:10;;;;;;;5.97;1.65;;;15.70;99.90;;;;;;5046210;28;20041;-74
2021/07/31 04:10:36;;;;;;;2.45;1.40;;;15.70;99.90;;;;;;5044869;28;20568;-71
2021/07/31 04:13:01;;;;;;;5.18;1.60;;;15.70;99.90;;;;;;5045962;28;20060;-74
2021/07/31 04:15:27;;;;;;;4.05;1.58;;;15.70;99.90;;;;;;5044549;28;20041;-69
2021/07/31 04:17:53;;;;;;;3.08;1.38;;;15.70;99.90;;;;;;5045981;28;20049;-69
2021/07/31 04:20:18;;;;;;;1.88;1.20;;;15.70;99.90;;;;;;5046094;28;20030;-73
2021/07/31 04:22:44;;;;;;;4.78;1.55;;;15.70;99.90;;;;;;5044651;28;20471;-73
2021/07/31 04:25:10;;;;;;;9.73;1.48;;;15.70;99.90;;;;;;5045810;28;20092;-70
2021/07/31 04:27:35;;;;;;;7.38;1.05;;;15.70;99.90;;;;;;5044540;28;20033;-71
2021/07/31 04:30:02;;;;;;;3.85;1.52;;;15.70;99.90;;;;;;5045885;28;20033;-69
2021/07/31 04:32:28;;;;;;;3.15;1.38;;;15.70;99.90;;;;;;5045615;28;20025;-70
2021/07/31 04:34:53;;;;;;;3.15;1.00;;;15.70;99.90;;;;;;5048326;28;20040;-70
2021/07/31 04:37:19;;;;;;;2.15;1.25;;;15.70;99.90;;;;;;5051384;28;20030;-72
2021/07/31 04:39:45;;;;;;;9.68;2.08;;;15.70;99.90;;;;;;5055775;28;20039;-73
2021/07/31 04:42:10;;;;;;;2.08;1.40;;;15.70;99.90;;;;;;5072980;28;20036;-72
2021/07/31 04:44:36;;;;;;;1.83;1.05;;;15.80;99.90;;;;;;5064196;28;20044;-70
2021/07/31 04:47:02;;;;;;;3.25;1.20;;;15.50;99.90;;;;;;5049562;28;20030;-70
2021/07/31 04:49:27;;;;;;;2.63;1.42;;;15.60;99.90;;;;;;5045413;28;20026;-69
2021/07/31 04:51:53;;;;;;;11.25;1.75;;;15.70;99.90;;;;;;5045269;28;20104;-70
2021/07/31 04:54:18;;;;;;;2.58;1.35;;;15.60;99.90;;;;;;5045392;28;20382;-71
2021/07/31 04:56:44;;;;;;;2.42;1.35;;;15.70;99.90;;;;;;5045438;28;20040;-71
2021/07/31 04:59:10;;;;;;;4.40;1.98;;;15.70;99.90;;;;;;5043941;28;20034;-72
2021/07/31 05:01:35;;;;;;;4.57;1.75;;;15.60;99.90;;;;;;5044885;28;20033;-70
2021/07/31 05:04:01;;;;;;;4.45;1.77;;;15.70;99.90;;;;;;5045115;28;20033;-70
2021/07/31 05:06:26;;;;;;;3.20;1.30;;;15.80;99.90;;;;;;5045242;28;20478;-69
2021/07/31 05:08:52;;;;;;;7.95;1.83;;;15.80;99.90;;;;;;5045032;28;20041;-71
2021/07/31 05:11:24;;;;;;;4.03;1.70;;;15.70;99.90;;;;;;5045709;28;20029;-72
2021/07/31 05:13:50;;;;;;;4.93;1.90;;;15.80;99.90;;;;;;5051786;28;20036;-69
2021/07/31 05:16:17;;;;;;;1.50;1.40;;;15.80;99.90;;;;;;5057540;28;20057;-70
2021/07/31 05:18:43;;;;;;;5.32;2.10;;;15.80;99.90;;;;;;5045667;28;20079;-70
2021/07/31 05:21:09;;;;;;;2.70;1.30;;;15.90;99.90;;;;;;5063846;28;20032;-68
2021/07/31 05:23:36;;;;;;;7.43;1.63;;;15.90;99.90;;;;;;5063925;28;20644;-74
2021/07/31 05:26:01;;;;;;;2.67;1.63;;;15.90;99.90;;;;;;5064605;28;20071;-69
2021/07/31 05:28:27;;;;;;;6.53;2.13;;;16.00;99.90;;;;;;5064486;28;20032;-71
2021/07/31 05:30:53;;;;;;;5.10;1.70;;;16.00;99.90;;;;;;5064609;28;20035;-72
2021/07/31 05:33:18;;;;;;;4.00;1.40;;;16.00;99.90;;;;;;5063101;28;20025;-69
2021/07/31 05:35:44;;;;;;;3.30;1.30;;;16.10;99.90;;;;;;5063462;28;20021;-75
2021/07/31 05:38:09;;;;;;;2.97;1.60;;;16.20;99.90;;;;;;5063425;28;20024;-69
2021/07/31 05:40:35;;;;;;;2.17;1.52;;;16.20;99.90;;;;;;5064430;28;20036;-70
2021/07/31 05:43:01;;;;;;;6.07;1.75;;;16.30;99.90;;;;;;5064668;28;20086;-72
2021/07/31 05:45:27;;;;;;;2.42;1.65;;;16.30;99.90;;;;;;5063248;28;20045;-72
2021/07/31 05:47:56;;;;;;;4.85;1.88;;;16.40;99.90;;;;;;5063289;28;20119;-74
2021/07/31 05:50:22;;;;;;;9.20;1.58;;;16.40;99.90;;;;;;5064463;28;20052;-69
2021/07/31 05:52:48;;;;;;;4.75;1.58;;;16.40;99.90;;;;;;5064472;28;20025;-71
2021/07/31 05:55:13;;;;;;;3.72;1.83;;;16.40;99.90;;;;;;5063173;28;20028;-72
2021/07/31 05:57:39;;;;;;;4.03;1.58;;;16.30;99.90;;;;;;5064519;28;20028;-70
2021/07/31 06:00:05;;;;;;;1.63;1.27;;;16.30;99.90;;;;;;5063048;28;20021;-71
2021/07/31 06:02:30;;;;;;;3.05;1.77;;;16.40;99.90;;;;;;5064651;28;20025;-71
2021/07/31 06:04:56;;;;;;;5.95;2.00;;;16.30;99.90;;;;;;5067020;28;20059;-71
2021/07/31 06:07:22;;;;;;;2.83;1.67;;;16.50;99.90;;;;;;5068534;28;20080;-72
2021/07/31 06:09:51;;;;;;;5.90;1.83;;;16.50;99.90;;;;;;5068689;28;20064;-73
2021/07/31 06:12:18;;;;;;;4.85;1.50;;;16.40;99.90;;;;;;5067413;28;20040;-69
2021/07/31 06:14:44;;;;;;;3.30;1.95;;;16.40;99.90;;;;;;5068264;28;20049;-71
2021/07/31 06:17:09;;;;;;;2.47;1.58;;;16.40;99.90;;;;;;5068436;28;20143;-72
2021/07/31 06:19:35;;;;;;;13.50;2.65;;;16.60;99.90;;;;;;5068193;28;20036;-73
2021/07/31 06:22:02;;;;;;;6.22;2.58;;;16.50;99.90;;;;;;5068063;28;20021;-69
2021/07/31 06:24:28;;;;;;;4.13;1.92;;;16.70;99.90;;;;;;5068054;28;20039;-72
2021/07/31 06:26:54;;;;;;;3.22;1.85;;;16.80;99.90;;;;;;5066799;28;20044;-72
2021/07/31 06:29:20;;;;;;;2.78;1.70;;;16.90;99.90;;;;;;5068030;28;20473;-72
2021/07/31 06:31:46;;;;;;;4.68;1.65;;;16.90;99.90;;;;;;5066732;28;20040;-74
2021/07/31 06:34:11;;;;;;;4.20;1.80;;;17.00;99.90;;;;;;5068035;28;20089;-73
2021/07/31 06:36:42;;;;;;;9.18;2.65;;;17.00;99.90;;;;;;5064243;28;20038;-72
2021/07/31 06:39:09;;;;;;;5.55;2.13;;;17.00;99.90;;;;;;5047770;28;20018;-70
2021/07/31 06:41:34;;;;;;;4.20;1.67;;;17.10;99.90;;;;;;5062305;28;20128;-71
2021/07/31 06:44:00;;;;;;;4.90;1.65;;;17.10;99.90;;;;;;5061794;28;20056;-74
2021/07/31 06:46:26;;;;;;;6.32;2.22;;;17.10;99.90;;;;;;5048866;28;20398;-71
2021/07/31 06:48:55;;;;;;;2.45;1.10;;;17.20;99.90;;;;;;5061816;28;20033;-73
2021/07/31 06:51:22;;;;;;;4.75;1.90;;;17.10;99.90;;;;;;5058629;28;20049;-72
2021/07/31 06:53:49;;;;;;;5.20;1.88;;;17.10;99.90;;;;;;5046673;28;20024;-73
2021/07/31 06:56:16;;;;;;;4.93;1.90;;;17.10;99.90;;;;;;5057447;28;20016;-75
2021/07/31 06:58:43;;;;;;;3.17;1.45;;;17.00;99.90;;;;;;5067108;28;20021;-72
2021/07/31 07:01:09;;;;;;;3.17;1.58;;;16.90;99.90;;;;;;5066164;28;20093;-70
2021/07/31 07:03:35;;;;;;;3.08;1.65;;;16.90;99.90;;;;;;5067290;28;21122;-73
2021/07/31 07:06:09;;;;;;;12.02;2.13;;;16.80;99.90;;;;;;5067366;28;20061;-74
2021/07/31 07:08:35;;;;;;;1.92;1.30;;;16.80;99.90;;;;;;5067397;28;20025;-72
2021/07/31 07:11:02;;;;;;;3.70;1.73;;;16.80;99.90;;;;;;5067306;28;20040;-70
2021/07/31 07:13:28;;;;;;;6.22;2.28;;;16.70;99.90;;;;;;5066804;28;20025;-73
2021/07/31 07:15:53;;;;;;;2.95;1.35;;;16.80;99.90;;;;;;5065866;28;20069;-72
2021/07/31 07:18:19;;;;;;;4.63;1.95;;;16.70;99.90;;;;;;5067254;28;20025;-72
2021/07/31 07:20:45;;;;;;;9.85;1.60;;;16.80;99.90;;;;;;5066246;28;20028;-71
2021/07/31 07:23:11;;;;;;;5.38;1.70;;;16.80;99.90;;;;;;5067501;28;20074;-71
2021/07/31 07:25:37;;;;;;;5.13;2.08;;;16.80;99.90;;;;;;5067058;28;20548;-70
2021/07/31 07:28:03;;;;;;;4.43;1.75;;;16.80;99.90;;;;;;5067327;28;20029;-71
2021/07/31 07:30:28;;;;;;;8.95;1.30;;;16.80;99.90;;;;;;5067034;28;20025;-71
2021/07/31 07:32:54;;;;;;;5.22;1.92;;;16.80;99.90;;;;;;5065650;28;20036;-72
2021/07/31 07:35:21;;;;;;;3.50;1.45;;;16.80;99.90;;;;;;5065750;28;20029;-74
2021/07/31 07:37:47;;;;;;;3.30;1.63;;;16.90;99.90;;;;;;5066957;28;20021;-72
2021/07/31 07:40:14;;;;;;;4.00;1.73;;;16.90;99.90;;;;;;5057689;28;20040;-73
2021/07/31 07:42:41;;;;;;;3.05;1.33;;;17.00;99.90;;;;;;5062226;28;20029;-74
2021/07/31 07:45:08;;;;;;;3.10;1.25;;;17.00;99.90;;;;;;5066612;28;20524;-71
2021/07/31 07:47:34;;;;;;;5.85;1.48;;;17.00;99.90;;;;;;5066533;28;20033;-71
2021/07/31 07:50:04;;;;;;;3.95;1.77;;;16.90;99.90;;;;;;5054884;28;20409;-73
2021/07/31 07:52:29;;;;;;;4.63;2.17;;;16.90;99.90;;;;;;5045048;28;20033;-72
2021/07/31 07:54:55;;;;;;;6.70;1.75;;;16.90;99.90;;;;;;5045009;28;20363;-70
2021/07/31 07:57:21;;;;;;;5.20;1.75;;;16.90;99.90;;;;;;5046519;28;20049;-69
2021/07/31 07:59:46;;;;;;;4.38;2.03;;;16.90;99.90;;;;;;5046413;28;20084;-72
2021/07/31 08:02:12;;;;;;;4.93;1.80;;;17.00;99.90;;;;;;5046260;28;20056;-71
2021/07/31 08:04:38;;;;;;;12.98;2.40;;;17.10;99.90;;;;;;5044841;28;20042;-71
2021/07/31 08:07:04;;;;;;;11.85;2.35;;;17.10;99.90;;;;;;5046289;28;20703;-68
2021/07/31 08:09:29;;;;;;;5.97;1.65;;;17.20;99.90;;;;;;5046103;28;20025;-71
2021/07/31 08:11:55;;;;;;;2.13;1.40;;;17.30;99.90;;;;;;5046339;28;20028;-69
2021/07/31 08:14:21;;;;;;;2.88;1.63;;;17.30;99.90;;;;;;5045826;28;20029;-74
2021/07/31 08:16:46;;;;;;;6.00;2.25;;;17.40;99.90;;;;;;5046167;28;20035;-71
2021/07/31 08:19:12;;;;;;;2.58;1.67;;;17.50;99.90;;;;;;5044889;28;20425;-70
2021/07/31 08:21:38;;;;;;;8.82;1.60;;;17.50;99.90;;;;;;5044623;28;20120;-70
2021/07/31 08:24:05;;;;;;;3.10;1.70;;;17.50;99.90;;;;;;5045914;28;20067;-73
2021/07/31 08:26:30;;;;;;;4.05;1.65;;;17.50;99.90;;;;;;5044350;28;20034;-73
2021/07/31 08:28:56;;;;;;;6.60;1.83;;;17.60;99.90;;;;;;5044538;28;20040;-72
2021/07/31 08:31:22;;;;;;;3.00;1.60;;;17.60;99.90;;;;;;5044564;28;20363;-71
2021/07/31 08:33:47;;;;;;;5.13;2.05;;;17.50;99.90;;;;;;5044304;28;20029;-71
2021/07/31 08:36:13;;;;;;;3.88;1.85;;;17.60;99.90;;;;;;5045839;28;20055;-72
2021/07/31 08:38:38;;;;;;;3.40;1.83;;;17.80;99.90;;;;;;5044234;28;20632;-70
2021/07/31 08:41:04;;;;;;;4.47;2.22;;;17.90;99.90;;;;;;5045489;28;20029;-70
2021/07/31 08:43:31;;;;;;;5.85;2.15;;;17.90;99.90;;;;;;5045460;28;20018;-74
2021/07/31 08:45:57;;;;;;;4.07;2.17;;;17.80;99.90;;;;;;5045439;28;20040;-72
2021/07/31 08:48:27;;;;;;;9.57;2.25;;;17.70;99.90;;;;;;5044133;28;20414;-69
2021/07/31 08:51:00;;;;;;;17.50;1.90;;;17.70;99.90;;;;;;5045675;28;20169;-74
2021/07/31 08:53:30;;;;;;;7.80;1.70;;;17.60;99.90;;;;;;5045320;28;20108;-74
2021/07/31 08:56:00;;;;;;;4.78;2.20;;;17.60;99.90;;;;;;5045438;28;20083;-71
2021/07/31 08:58:26;;;;;;;4.05;1.70;;;17.60;99.90;;;;;;5045389;28;20033;-73
2021/07/31 09:00:53;;;;;;;4.78;2.00;;;17.60;99.90;;;;;;5045197;28;20041;-76
2021/07/31 09:03:19;;;;;;;4.40;2.45;;;17.60;99.90;;;;;;5045247;28;20025;-72
2021/07/31 09:05:45;;;;;;;3.47;1.77;;;17.70;99.90;;;;;;5043998;28;20041;-75
2021/07/31 09:08:11;;;;;;;3.90;1.92;;;17.60;99.90;;;;;;5043922;28;20033;-73
2021/07/31 09:10:45;;;;;;;2.28;1.30;;;17.80;99.90;;;;;;5043934;28;20362;-71
2021/07/31 09:13:18;;;;;;;3.33;1.77;;;17.90;99.90;;;;;;5045128;28;20030;-71
2021/07/31 09:15:45;;;;;;;4.53;1.60;;;17.90;99.90;;;;;;5044948;28;20053;-68
2021/07/31 09:18:32;;;;;;;9.10;2.15;;;18.10;99.90;;;;;;5045055;28;20029;-68
2021/07/31 09:21:15;;;;;;;2.42;1.60;;;18.10;99.90;;;;;;5044981;28;20389;-71
2021/07/31 09:23:48;;;;;;;2.88;1.52;;;18.10;99.90;;;;;;5045447;28;20078;-70
2021/07/31 09:26:26;;;;;;;4.85;2.15;;;18.10;99.90;;;;;;5045138;28;20433;-73
2021/07/31 09:29:08;;;;;;;4.00;1.90;;;18.20;99.90;;;;;;5045290;28;20021;-74
2021/07/31 09:31:36;;;;;;;2.55;1.35;;;18.10;99.90;;;;;;5045373;28;20087;-73
2021/07/31 09:34:03;;;;;;;3.42;1.88;;;17.90;99.90;;;;;;5044077;28;20052;-73
2021/07/31 09:36:40;;;;;;;3.03;2.13;;;17.80;99.90;;;;;;5046484;28;20018;-69
2021/07/31 09:39:10;;;;;;;4.97;2.72;;;17.60;99.90;;;;;;5046512;28;20021;-70
2021/07/31 09:41:38;;;;;;;2.85;1.85;;;17.50;99.90;;;;;;5044229;28;20017;-69
2021/07/31 09:44:09;;;;;;;2.55;1.98;;;17.50;99.90;;;;;;5044751;28;20051;-72
2021/07/31 09:46:38;;;;;;;3.47;1.92;;;17.40;99.90;;;;;;5044667;28;20033;-73
2021/07/31 09:49:06;;;;;;;3.70;1.90;;;17.30;99.90;;;;;;5043344;28;20045;-73
2021/07/31 09:51:38;;;;;;;3.30;1.92;;;17.20;99.90;;;;;;5044744;28;20037;-74
2021/07/31 09:54:09;;;;;;;1.70;1.55;;;17.20;99.90;;;;;;5044595;28;20025;-74
2021/07/31 09:56:50;;;;;;;7.03;1.60;;;17.20;99.90;;;;;;5044687;28;20060;-73
2021/07/31 09:59:23;;;;;;;3.80;1.80;;;17.30;99.90;;;;;;5044744;28;20027;-74
2021/07/31 10:01:55;;;;;;;2.73;1.63;;;17.40;99.90;;;;;;5043281;28;20026;-70
2021/07/31 10:04:20;;;;;;;2.97;1.17;;;17.60;99.90;;;;;;5044525;28;20041;-71
2021/07/31 10:06:49;;;;;;;11.27;1.45;;;17.80;99.90;;;;;;5043454;28;20026;-69
2021/07/31 10:09:15;;;;;;;1.75;1.27;;;17.80;99.90;;;;;;5044416;28;20433;-71
2021/07/31 10:11:41;;;;;;;2.55;1.30;;;17.80;99.90;;;;;;5044437;28;20485;-72
2021/07/31 10:14:08;;;;;;;2.90;1.45;;;17.70;99.90;;;;;;5044186;28;20108;-69
2021/07/31 10:16:43;;;;;;;1.98;1.35;;;17.60;99.90;;;;;;5044147;28;20050;-70
2021/07/31 10:19:10;;;;;;;3.08;1.63;;;17.60;99.90;;;;;;5047887;28;20064;-72
2021/07/31 10:21:46;;;;;;;3.38;1.35;;;17.60;99.90;;;;;;5058213;28;20040;-74
2021/07/31 10:24:12;;;;;;;6.47;1.98;;;17.70;99.90;;;;;;5044285;28;20041;-71
2021/07/31 10:26:38;;;;;;;3.95;1.67;;;17.90;99.90;;;;;;5044300;28;20017;-74
2021/07/31 10:29:25;;;;;;;3.50;1.73;;;18.00;99.90;;;;;;5057225;28;20174;-71
2021/07/31 10:31:51;;;;;;;3.55;1.60;;;18.00;99.90;;;;;;5064305;28;20017;-72
2021/07/31 10:34:45;;;;;;;2.75;1.00;;;18.00;99.90;;;;;;5060686;28;20025;-71
2021/07/31 10:37:35;;;;;;;1.63;1.35;;;18.20;99.90;;;;;;5042983;28;20069;-69
2021/07/31 10:40:01;;;;;;;2.45;1.25;;;18.30;99.90;;;;;;5042043;28;20501;-74
2021/07/31 10:42:52;;;;;;;2.65;1.23;;;18.40;99.90;;;;;;5043997;28;20026;-71
2021/07/31 10:45:18;;;;;;;1.73;1.15;;;18.30;99.90;;;;;;5044345;28;20037;-72
2021/07/31 10:47:48;;;;;;;8.82;1.42;;;18.20;99.90;;;;;;5044261;28;20093;-71
2021/07/31 10:50:23;;;;;;;1.65;1.08;;;18.10;99.90;;;;;;5047254;28;20037;-71
2021/07/31 10:53:05;;;;;;;1.65;1.35;;;17.90;99.90;;;;;;5047960;28;20033;-71
2021/07/31 10:55:37;;;;;;;1.38;1.05;;;17.70;99.90;;;;;;5047798;28;20052;-72
2021/07/31 10:58:03;;;;;;;5.90;1.70;;;17.40;99.90;;;;;;5047599;28;20028;-72
2021/07/31 11:00:46;;;;;;;3.50;1.65;;;17.20;99.90;;;;;;5047542;28;20041;-75
2021/07/31 11:03:31;;;;;;;3.85;2.03;;;16.90;99.90;;;;;;5047527;28;20055;-74
2021/07/31 11:06:03;;;;;;;4.60;1.80;;;16.70;99.90;;;;;;5047263;28;20371;-70
2021/07/31 11:08:52;;;;;;;4.00;2.25;;;16.60;99.90;;;;;;5047560;28;20022;-71
2021/07/31 11:11:18;;;;;;;4.03;2.58;;;16.70;99.90;;;;;;5047677;28;20025;-73
2021/07/31 11:13:44;;;;;;;5.75;2.58;;;16.80;99.90;;;;;;5045989;28;20105;-75
2021/07/31 11:16:19;;;;;;;3.80;1.85;;;17.10;99.90;;;;;;5045993;28;20056;-75
2021/07/31 11:18:47;;;;;;;4.35;2.13;;;17.50;99.90;;;;;;5047737;28;20029;-78
2021/07/31 11:21:21;;;;;;;3.97;2.00;;;17.90;99.90;;;;;;5053460;28;20039;-76
2021/07/31 11:23:53;;;;;;;5.57;2.53;;;17.90;99.90;;;;;;5047612;28;20021;-76
2021/07/31 11:26:54;;;;;;;4.60;1.90;;;17.90;99.90;;;;;;5047128;28;20037;-72
2021/07/31 11:29:22;;;;;;;2.15;1.40;;;17.80;99.90;;;;;;5045862;28;20037;-73
2021/07/31 11:32:12;;;;;;;3.50;1.95;;;17.80;99.90;;;;;;5046924;28;20026;-74
2021/07/31 11:34:42;;;;;;;6.95;1.48;;;17.60;99.90;;;;;;5046812;28;20451;-74
2021/07/31 11:37:08;;;;;;;2.15;1.30;;;17.60;99.90;;;;;;5062121;28;20057;-74
2021/07/31 11:39:38;;;;;;;2.22;0.90;;;17.60;99.90;;;;;;5046812;28;20025;-73
2021/07/31 11:42:04;;;;;;;2.70;0.95;;;17.40;99.90;;;;;;5062046;28;20032;-73
2021/07/31 11:44:34;;;;;;;7.38;1.45;;;17.30;99.90;;;;;;5046546;28;20037;-73
2021/07/31 11:47:01;;;;;;;1.40;0.90;;;17.10;99.90;;;;;;5064391;28;20029;-73
2021/07/31 11:49:31;;;;;;;7.53;0.82;;;16.90;99.90;;;;;;5067728;28;20029;-73
2021/07/31 11:52:01;;;;;;;1.38;1.00;;;16.90;99.90;;;;;;5066021;28;20060;-72
2021/07/31 11:54:28;;;;;;;1.73;1.30;;;16.80;99.90;;;;;;5066766;28;20032;-74
2021/07/31 11:56:57;;;;;;;2.08;1.02;;;16.80;99.90;;;;;;5066655;28;20145;-72
2021/07/31 11:59:32;;;;;;;1.88;1.00;;;16.70;99.90;;;;;;5064970;28;20120;-72
2021/07/31 12:01:58;;;;;;;;;;;16.80;99.90;;;;;;5065924;28;20121;-72
2021/07/31 12:04:43;;;;;;;1.20;0.80;;;16.80;99.90;;;;;;5066311;28;19936;-75
2021/07/31 12:07:16;;;;;;;1.50;0.90;;;16.90;99.90;;;;;;5066262;28;20029;-74
2021/07/31 12:09:44;;;;;;;1.90;0.93;;;17.00;99.90;;;;;;5063842;28;20032;-72
2021/07/31 12:12:26;;;;;;;1.20;0.98;;;17.20;99.90;;;;;;5059404;28;20044;-71
2021/07/31 12:15:12;;;;;;;2.70;1.17;;;17.20;99.90;;;;;;5061392;28;20344;-73
2021/07/31 12:17:38;;;;;;;1.58;1.08;;;17.30;99.90;;;;;;5046068;28;20064;-71
2021/07/31 12:20:05;;;;;;;2.10;0.73;;;17.40;99.90;;;;;;5050675;28;20095;-73
2021/07/31 12:22:34;;;;;;;0.88;0.70;;;17.50;99.90;;;;;;5065976;28;20017;-75
2021/07/31 12:25:12;;;;;;;4.93;1.00;;;17.50;99.90;;;;;;5065902;28;20494;-75
2021/07/31 12:27:48;;;;;;;8.60;1.05;;;17.60;99.90;;;;;;5065869;28;20084;-72
2021/07/31 12:30:28;;;;;;;2.35;1.15;;;17.80;99.90;;;;;;5065986;28;20108;-72
2021/07/31 12:32:55;;;;;;;2.03;1.38;;;17.90;99.90;;;;;;5064613;28;20032;-75
2021/07/31 12:35:46;;;;;;;1.80;1.27;;;18.00;99.90;;;;;;5065839;28;20036;-69
2021/07/31 12:38:18;;;;;;;0.77;0.65;;;18.30;99.90;;;;;;5065817;28;20065;-72
2021/07/31 12:40:54;;;;;;;4.97;1.10;;;18.40;99.90;;;;;;5064588;28;20029;-73
2021/07/31 12:43:25;;;;;;;4.18;1.15;;;18.40;99.90;;;;;;5064448;28;20025;-73
2021/07/31 12:45:54;;;;;;;1.52;1.08;;;18.40;99.90;;;;;;5063152;28;20061;-76
2021/07/31 12:48:19;;;;;;;3.97;1.52;;;18.30;99.90;;;;;;5045536;28;20022;-74